createdAt,value
2018-04-20T00:01:54.015Z,18.50
2018-04-20T00:04:21.441Z,18.50
2018-04-20T00:06:49.672Z,18.30
2018-04-20T00:09:17.117Z,18.30
2018-04-20T00:11:44.560Z,18.30
2018-04-20T00:14:12.021Z,18.20
2018-04-20T00:16:39.501Z,18.20
2018-04-20T00:19:06.938Z,18.20
2018-04-20T00:21:34.380Z,18.20
2018-04-20T00:24:01.940Z,18.20
2018-04-20T00:26:29.366Z,18.20
2018-04-20T00:28:57.600Z,18.20
2018-04-20T00:31:25.044Z,18.10
2018-04-20T00:33:52.499Z,18.10
2018-04-20T00:36:19.955Z,18.00
2018-04-20T00:38:47.496Z,18.10
2018-04-20T00:41:14.925Z,18.10
2018-04-20T00:43:43.158Z,18.00
2018-04-20T00:46:10.621Z,17.90
2018-04-20T00:48:38.075Z,18.00
2018-04-20T00:51:06.282Z,17.90
2018-04-20T00:53:46.321Z,17.90
2018-04-20T00:56:14.564Z,17.80
2018-04-20T00:58:42.008Z,17.70
2018-04-20T01:01:09.457Z,17.70
2018-04-20T01:03:36.892Z,17.70
2018-04-20T01:06:04.333Z,17.70
2018-04-20T01:08:32.535Z,17.70
2018-04-20T01:10:59.986Z,17.60
2018-04-20T01:13:27.434Z,17.60
2018-04-20T01:15:54.877Z,17.60
2018-04-20T01:21:02.124Z,17.50
2018-04-20T01:23:29.564Z,17.40
2018-04-20T01:25:57.008Z,17.50
2018-04-20T01:28:24.454Z,17.40
2018-04-20T01:30:51.888Z,17.30
2018-04-20T01:33:20.096Z,17.20
2018-04-20T01:35:47.561Z,17.20
2018-04-20T01:38:15.002Z,17.20
2018-04-20T01:40:42.449Z,17.10
2018-04-20T01:43:09.949Z,17.10
2018-04-20T01:45:37.400Z,17.10
2018-04-20T01:48:04.824Z,17.10
2018-04-20T01:50:32.281Z,17.10
2018-04-20T01:52:59.827Z,17.10
2018-04-20T01:55:28.049Z,17.10
2018-04-20T01:57:55.605Z,17.00
2018-04-20T02:00:23.062Z,17.00
2018-04-20T02:02:50.507Z,17.00
2018-04-20T02:05:17.936Z,17.00
2018-04-20T02:07:45.393Z,17.00
2018-04-20T02:10:12.888Z,16.80
2018-04-20T02:12:40.329Z,16.70
2018-04-20T02:15:07.784Z,16.70
2018-04-20T02:17:35.225Z,16.60
2018-04-20T02:20:02.696Z,16.60
2018-04-20T02:22:30.124Z,16.60
2018-04-20T02:24:57.568Z,16.50
2018-04-20T02:27:25.789Z,16.50
2018-04-20T02:29:53.282Z,16.40
2018-04-20T02:32:20.721Z,16.50
2018-04-20T02:34:48.162Z,16.60
2018-04-20T02:37:15.617Z,16.60
2018-04-20T02:39:43.045Z,16.60
2018-04-20T02:42:10.494Z,16.50
2018-04-20T02:44:38.101Z,16.40
2018-04-20T02:47:05.556Z,16.40
2018-04-20T02:49:33.096Z,16.40
2018-04-20T02:52:00.533Z,16.30
2018-04-20T02:54:27.964Z,16.30
2018-04-20T02:56:56.177Z,16.30
2018-04-20T02:59:24.420Z,16.20
2018-04-20T03:01:52.629Z,16.30
2018-04-20T03:04:20.075Z,16.20
2018-04-20T03:06:47.517Z,16.30
2018-04-20T03:09:15.737Z,16.20
2018-04-20T03:11:43.186Z,16.20
2018-04-20T03:14:10.629Z,16.20
2018-04-20T03:16:38.067Z,16.20
2018-04-20T03:19:05.576Z,16.20
2018-04-20T03:21:33.030Z,16.10
2018-04-20T03:24:00.469Z,16.10
2018-04-20T03:26:28.892Z,16.10
2018-04-20T03:28:57.101Z,16.00
2018-04-20T03:31:24.544Z,15.90
2018-04-20T03:33:51.987Z,16.00
2018-04-20T03:36:20.207Z,16.00
2018-04-20T03:38:47.644Z,15.90
2018-04-20T03:41:15.098Z,16.00
2018-04-20T03:43:42.542Z,16.00
2018-04-20T03:46:10.744Z,15.80
2018-04-20T03:48:38.222Z,15.80
2018-04-20T03:51:05.681Z,15.80
2018-04-20T03:53:33.121Z,15.70
2018-04-20T03:56:00.562Z,15.70
2018-04-20T03:58:27.997Z,15.70
2018-04-20T04:00:55.437Z,15.70
2018-04-20T04:03:23.680Z,15.60
2018-04-20T04:05:51.240Z,15.50
2018-04-20T04:08:18.664Z,15.60
2018-04-20T04:10:46.154Z,15.50
2018-04-20T04:13:13.558Z,15.40
2018-04-20T04:15:41.001Z,15.40
2018-04-20T04:18:21.085Z,15.40
2018-04-20T04:21:05.566Z,15.40
2018-04-20T04:23:45.017Z,15.40
2018-04-20T04:26:25.259Z,15.40
2018-04-20T04:28:52.693Z,15.40
2018-04-20T04:31:20.249Z,15.40
2018-04-20T04:33:47.694Z,15.40
2018-04-20T04:36:15.184Z,15.50
2018-04-20T04:38:42.627Z,15.50
2018-04-20T04:41:10.068Z,15.50
2018-04-20T04:43:37.509Z,15.50
2018-04-20T04:46:04.946Z,15.50
2018-04-20T04:48:33.161Z,15.50
2018-04-20T04:51:00.628Z,15.40
2018-04-20T04:53:28.064Z,15.50
2018-04-20T04:55:55.520Z,15.50
2018-04-20T04:58:23.018Z,15.50
2018-04-20T05:00:50.474Z,15.50
2018-04-20T05:03:17.921Z,15.40
2018-04-20T05:05:45.364Z,15.50
2018-04-20T05:08:12.796Z,15.60
2018-04-20T05:10:40.261Z,15.70
2018-04-20T05:13:07.696Z,15.80
2018-04-20T05:15:35.908Z,15.90
2018-04-20T05:18:03.360Z,15.80
2018-04-20T05:20:30.847Z,15.90
2018-04-20T05:22:58.281Z,15.90
2018-04-20T05:25:25.817Z,16.00
2018-04-20T05:27:54.338Z,16.00
2018-04-20T05:30:21.810Z,16.10
2018-04-20T05:32:49.313Z,16.20
2018-04-20T05:35:16.748Z,16.20
2018-04-20T05:37:44.213Z,16.30
2018-04-20T05:40:11.682Z,16.30
2018-04-20T05:42:39.936Z,16.50
2018-04-20T05:45:07.373Z,16.40
2018-04-20T05:47:34.817Z,16.60
2018-04-20T05:50:02.267Z,16.60
2018-04-20T05:52:29.719Z,16.70
2018-04-20T05:54:57.179Z,16.80
2018-04-20T05:57:24.629Z,16.90
2018-04-20T05:59:52.057Z,16.90
2018-04-20T06:02:20.261Z,17.00
2018-04-20T06:04:47.714Z,17.00
2018-04-20T06:07:15.149Z,17.10
2018-04-20T06:09:42.596Z,17.00
2018-04-20T06:12:10.818Z,17.20
2018-04-20T06:14:38.276Z,17.20
2018-04-20T06:17:05.737Z,17.30
2018-04-20T06:19:33.203Z,17.40
2018-04-20T06:22:00.658Z,17.30
2018-04-20T06:24:28.101Z,17.30
2018-04-20T06:26:55.547Z,17.50
2018-04-20T06:29:22.993Z,17.50
2018-04-20T06:31:50.460Z,17.60
2018-04-20T06:34:17.993Z,17.70
2018-04-20T06:36:46.202Z,17.70
2018-04-20T06:39:13.757Z,17.70
2018-04-20T06:41:41.270Z,17.80
2018-04-20T06:44:08.789Z,17.90
2018-04-20T06:46:36.333Z,17.90
2018-04-20T06:49:03.787Z,18.00
2018-04-20T06:51:31.218Z,18.00
2018-04-20T06:53:59.433Z,18.10
2018-04-20T06:56:27.002Z,18.00
2018-04-20T06:58:54.437Z,18.20
2018-04-20T07:01:21.915Z,18.30
2018-04-20T07:03:49.356Z,18.40
2018-04-20T07:06:16.809Z,18.40
2018-04-20T07:08:44.301Z,18.50
2018-04-20T07:11:11.757Z,18.60
2018-04-20T07:13:39.282Z,18.80
2018-04-20T07:16:06.706Z,18.90
2018-04-20T07:18:35.018Z,19.00
2018-04-20T07:21:02.468Z,18.90
2018-04-20T07:23:29.903Z,19.00
2018-04-20T07:25:58.159Z,19.20
2018-04-20T07:28:27.125Z,19.30
2018-04-20T07:30:54.692Z,19.30
2018-04-20T07:33:22.178Z,19.40
2018-04-20T07:35:50.420Z,19.50
2018-04-20T07:38:17.944Z,19.50
2018-04-20T07:40:45.708Z,19.60
2018-04-20T07:43:13.213Z,19.70
2018-04-20T07:45:40.935Z,19.80
2018-04-20T07:48:08.391Z,19.90
2018-04-20T07:50:35.948Z,20.00
2018-04-20T07:53:03.418Z,20.10
2018-04-20T07:55:30.860Z,20.20
2018-04-20T07:57:58.398Z,20.30
2018-04-20T08:00:26.100Z,20.30
2018-04-20T08:02:53.567Z,20.40
2018-04-20T08:05:21.117Z,20.50
2018-04-20T08:07:48.716Z,20.60
2018-04-20T08:10:16.962Z,20.70
2018-04-20T08:12:44.409Z,20.70
2018-04-20T08:15:11.949Z,20.80
2018-04-20T08:17:39.369Z,20.90
2018-04-20T08:20:07.685Z,21.00
2018-04-20T08:22:35.113Z,21.00
2018-04-20T08:25:02.572Z,21.20
2018-04-20T08:27:30.013Z,21.20
2018-04-20T08:29:58.273Z,21.30
2018-04-20T08:32:25.809Z,21.30
2018-04-20T08:34:53.244Z,21.40
2018-04-20T08:37:20.694Z,21.50
2018-04-20T08:39:48.176Z,21.60
2018-04-20T08:42:15.657Z,21.80
2018-04-20T08:44:43.115Z,21.90
2018-04-20T08:47:10.563Z,22.10
2018-04-20T08:49:38.004Z,22.20
2018-04-20T08:52:05.542Z,22.30
2018-04-20T08:54:32.997Z,22.40
2018-04-20T08:57:00.523Z,22.60
2018-04-20T08:59:27.885Z,22.70
2018-04-20T09:01:55.344Z,22.80
2018-04-20T09:04:23.542Z,23.10
2018-04-20T09:06:51.101Z,23.10
2018-04-20T09:09:18.582Z,23.20
2018-04-20T09:11:46.017Z,23.30
2018-04-20T09:14:13.468Z,23.40
2018-04-20T09:16:41.029Z,23.50
2018-04-20T09:19:08.484Z,23.60
2018-04-20T09:21:35.909Z,23.60
2018-04-20T09:24:04.218Z,24.00
2018-04-20T09:26:31.642Z,23.90
2018-04-20T09:28:59.845Z,24.20
2018-04-20T09:31:27.329Z,24.10
2018-04-20T09:33:54.797Z,24.20
2018-04-20T09:36:22.237Z,24.20
2018-04-20T09:38:49.780Z,24.30
2018-04-20T09:41:17.215Z,24.40
2018-04-20T09:43:44.670Z,24.50
2018-04-20T09:46:12.933Z,24.90
2018-04-20T09:48:40.427Z,24.90
2018-04-20T09:51:07.860Z,25.10
2018-04-20T09:53:35.340Z,25.30
2018-04-20T09:56:02.773Z,25.30
2018-04-20T09:58:31.077Z,25.50
2018-04-20T10:00:58.510Z,25.40
2018-04-20T10:03:35.849Z,25.60
2018-04-20T10:06:03.290Z,25.60
2018-04-20T10:08:30.729Z,25.70
2018-04-20T10:10:58.161Z,25.80
2018-04-20T10:13:26.471Z,26.20
2018-04-20T10:15:53.905Z,26.10
2018-04-20T10:18:21.388Z,26.20
2018-04-20T10:20:48.841Z,26.40
2018-04-20T10:23:16.286Z,26.50
2018-04-20T10:25:43.728Z,26.50
2018-04-20T10:28:11.931Z,26.50
2018-04-20T10:30:39.360Z,26.40
2018-04-20T10:33:06.838Z,26.60
2018-04-20T10:35:34.288Z,26.70
2018-04-20T10:38:01.866Z,26.80
2018-04-20T10:40:29.616Z,26.80
2018-04-20T10:42:57.061Z,26.90
2018-04-20T10:45:24.513Z,26.90
2018-04-20T10:47:51.952Z,26.90
2018-04-20T10:50:20.161Z,26.90
2018-04-20T10:52:47.609Z,26.80
2018-04-20T10:55:15.043Z,26.90
2018-04-20T10:57:43.350Z,26.90
2018-04-20T11:00:10.773Z,26.90
2018-04-20T11:02:38.995Z,27.20
2018-04-20T11:05:06.431Z,27.10
2018-04-20T11:07:33.866Z,27.20
2018-04-20T11:10:02.073Z,27.20
2018-04-20T11:12:29.566Z,27.10
2018-04-20T11:14:57.085Z,27.20
2018-04-20T11:17:24.541Z,27.30
2018-04-20T11:19:51.965Z,27.40
2018-04-20T11:22:20.183Z,27.40
2018-04-20T11:24:47.653Z,27.40
2018-04-20T11:27:15.184Z,27.30
2018-04-20T11:29:42.605Z,27.30
2018-04-20T11:32:10.918Z,27.40
2018-04-20T11:34:38.349Z,27.30
2018-04-20T11:37:05.840Z,27.30
2018-04-20T11:39:33.277Z,27.30
2018-04-20T11:42:00.732Z,27.30
2018-04-20T11:44:28.169Z,27.30
2018-04-20T11:46:56.805Z,27.60
2018-04-20T11:49:24.287Z,27.50
2018-04-20T11:51:51.806Z,27.70
2018-04-20T11:54:19.224Z,27.70
2018-04-20T11:56:47.429Z,27.70
2018-04-20T11:59:14.885Z,27.70
2018-04-20T12:01:42.317Z,27.80
2018-04-20T12:04:09.768Z,28.00
2018-04-20T12:06:38.076Z,27.70
2018-04-20T12:09:05.508Z,27.70
2018-04-20T12:11:33.718Z,27.40
2018-04-20T12:14:01.165Z,27.40
2018-04-20T12:16:28.622Z,27.60
2018-04-20T12:18:56.185Z,27.50
2018-04-20T12:21:23.655Z,27.30
2018-04-20T12:23:51.089Z,27.10
2018-04-20T12:26:18.555Z,27.10
2018-04-20T12:28:46.009Z,27.10
2018-04-20T12:31:13.441Z,27.00
2018-04-20T12:33:41.670Z,27.40
2018-04-20T12:36:09.109Z,27.40
2018-04-20T12:38:36.590Z,27.30
2018-04-20T12:41:04.113Z,27.20
2018-04-20T12:43:31.606Z,27.00
2018-04-20T12:45:59.067Z,27.00
2018-04-20T12:48:27.295Z,27.10
2018-04-20T12:50:54.729Z,27.00
2018-04-20T12:53:22.966Z,27.40
2018-04-20T12:58:25.009Z,27.40
2018-04-20T13:00:52.450Z,27.40
2018-04-20T13:03:19.923Z,27.40
2018-04-20T13:05:47.360Z,27.40
2018-04-20T13:08:14.809Z,27.40
2018-04-20T13:10:43.033Z,27.60
2018-04-20T13:13:10.574Z,27.60
2018-04-20T13:15:37.992Z,27.80
2018-04-20T13:18:06.225Z,27.70
2018-04-20T13:20:33.657Z,27.60
2018-04-20T13:23:01.102Z,27.60
2018-04-20T13:25:28.541Z,27.50
2018-04-20T13:27:56.749Z,27.70
2018-04-20T13:30:24.204Z,27.60
2018-04-20T13:32:51.688Z,27.60
2018-04-20T13:35:19.138Z,27.50
2018-04-20T13:37:46.576Z,27.40
2018-04-20T13:40:14.128Z,27.50
2018-04-20T13:42:41.561Z,27.60
2018-04-20T13:45:09.041Z,27.60
2018-04-20T13:47:36.467Z,27.60
2018-04-20T13:50:04.674Z,27.50
2018-04-20T13:52:32.101Z,27.50
2018-04-20T13:55:00.318Z,27.40
2018-04-20T13:57:27.753Z,27.40
2018-04-20T13:59:55.217Z,27.30
2018-04-20T14:02:22.652Z,27.30
2018-04-20T14:04:50.113Z,27.40
2018-04-20T14:07:17.549Z,27.30
2018-04-20T14:09:45.865Z,27.30
2018-04-20T14:12:13.348Z,27.30
2018-04-20T14:14:40.835Z,27.40
2018-04-20T14:17:08.382Z,27.30
2018-04-20T14:19:35.898Z,27.20
2018-04-20T14:22:03.346Z,27.10
2018-04-20T14:24:30.909Z,27.10
2018-04-20T14:26:58.373Z,27.00
2018-04-20T14:29:25.821Z,27.00
2018-04-20T14:31:53.345Z,26.90
2018-04-20T14:34:20.782Z,26.90
2018-04-20T14:36:48.245Z,27.00
2018-04-20T14:39:15.753Z,27.00
2018-04-20T14:41:43.226Z,26.80
2018-04-20T14:44:10.656Z,26.90
2018-04-20T14:46:38.130Z,26.90
2018-04-20T14:49:05.621Z,26.80
2018-04-20T14:51:33.251Z,26.90
2018-04-20T14:54:00.708Z,26.80
2018-04-20T14:56:28.135Z,26.80
2018-04-20T14:58:56.367Z,26.80
2018-04-20T15:01:23.822Z,26.70
2018-04-20T15:03:51.296Z,26.80
2018-04-20T15:06:18.761Z,26.90
2018-04-20T15:08:46.962Z,26.70
2018-04-20T15:11:14.412Z,26.70
2018-04-20T15:13:42.723Z,26.50
2018-04-20T15:16:10.179Z,26.40
2018-04-20T15:18:37.622Z,26.40
2018-04-20T15:21:05.186Z,26.40
2018-04-20T15:23:32.628Z,26.30
2018-04-20T15:26:00.081Z,26.40
2018-04-20T15:28:28.297Z,26.90
2018-04-20T15:30:55.759Z,26.80
2018-04-20T15:33:23.203Z,27.10
2018-04-20T15:35:50.662Z,27.50
2018-04-20T15:38:18.121Z,27.80
2018-04-20T15:40:45.566Z,27.80
2018-04-20T15:43:13.049Z,28.00
2018-04-20T15:45:40.559Z,28.00
2018-04-20T15:48:08.748Z,28.10
2018-04-20T15:50:36.211Z,28.10
2018-04-20T15:53:03.670Z,28.10
2018-04-20T15:55:31.168Z,27.80
2018-04-20T15:57:58.602Z,28.00
2018-04-20T16:00:26.141Z,28.00
2018-04-20T16:02:53.622Z,27.90
2018-04-20T16:05:21.157Z,27.70
2018-04-20T16:07:48.646Z,27.50
2018-04-20T16:10:16.089Z,27.60
2018-04-20T16:12:43.629Z,27.70
2018-04-20T16:15:11.059Z,28.10
2018-04-20T16:17:38.542Z,28.20
2018-04-20T16:20:05.976Z,27.80
2018-04-20T16:22:33.448Z,27.70
2018-04-20T16:25:00.885Z,27.70
2018-04-20T16:27:28.363Z,27.60
2018-04-20T16:29:55.793Z,27.30
2018-04-20T16:32:24.002Z,27.00
2018-04-20T16:34:51.466Z,27.00
2018-04-20T16:37:18.907Z,26.80
2018-04-20T16:39:46.359Z,26.80
2018-04-20T16:42:13.805Z,26.70
2018-04-20T16:44:41.237Z,26.50
2018-04-20T16:47:09.456Z,26.60
2018-04-20T16:49:36.889Z,26.50
2018-04-20T16:52:04.341Z,26.60
2018-04-20T16:54:31.769Z,26.30
2018-04-20T16:56:59.990Z,25.90
2018-04-20T16:59:27.416Z,25.90
2018-04-20T17:01:55.633Z,25.60
2018-04-20T17:04:23.076Z,25.50
2018-04-20T17:06:50.509Z,25.40
2018-04-20T17:09:18.031Z,25.10
2018-04-20T17:11:45.521Z,25.00
2018-04-20T17:14:12.966Z,24.80
2018-04-20T17:16:41.178Z,24.80
2018-04-20T17:19:08.851Z,24.70
2018-04-20T17:21:36.297Z,24.70
2018-04-20T17:24:03.776Z,24.70
2018-04-20T17:26:31.277Z,24.80
2018-04-20T17:28:59.937Z,24.80
2018-04-20T17:31:27.409Z,24.70
2018-04-20T17:33:54.886Z,24.60
2018-04-20T17:36:22.281Z,24.40
2018-04-20T17:38:49.725Z,24.30
2018-04-20T17:41:17.164Z,23.90
2018-04-20T17:43:44.621Z,23.80
2018-04-20T17:46:12.085Z,23.60
2018-04-20T17:48:39.513Z,23.30
2018-04-20T17:51:07.775Z,22.90
2018-04-20T17:53:35.170Z,22.80
2018-04-20T17:56:02.601Z,22.80
2018-04-20T17:58:30.036Z,22.50
2018-04-20T18:00:57.540Z,22.40
2018-04-20T18:03:24.973Z,22.30
2018-04-20T18:05:52.477Z,22.10
2018-04-20T18:08:20.020Z,21.80
2018-04-20T18:10:47.509Z,21.60
2018-04-20T18:13:15.129Z,21.50
2018-04-20T18:15:42.578Z,21.40
2018-04-20T18:18:10.036Z,21.30
2018-04-20T18:20:37.617Z,21.10
2018-04-20T18:23:05.161Z,21.00
2018-04-20T18:25:32.577Z,20.90
2018-04-20T18:28:00.829Z,20.80
2018-04-20T18:30:28.268Z,20.70
2018-04-20T18:32:55.726Z,20.60
2018-04-20T18:35:23.169Z,20.50
2018-04-20T18:37:50.640Z,20.60
2018-04-20T18:40:18.082Z,20.40
2018-04-20T18:42:45.529Z,20.40
2018-04-20T18:45:13.013Z,20.30
2018-04-20T18:47:40.443Z,20.20
2018-04-20T18:50:07.972Z,20.10
2018-04-20T18:52:35.461Z,20.00
2018-04-20T18:55:02.949Z,19.80
2018-04-20T18:57:30.390Z,19.80
2018-04-20T18:59:57.860Z,19.70
2018-04-20T19:02:25.434Z,19.60
2018-04-20T19:04:52.977Z,19.50
2018-04-20T19:07:20.521Z,19.40
2018-04-20T19:09:47.958Z,19.30
2018-04-20T19:12:15.425Z,19.10
2018-04-20T19:14:42.880Z,19.00
2018-04-20T19:17:10.352Z,18.90
2018-04-20T19:19:37.887Z,18.80
2018-04-20T19:22:05.446Z,18.70
2018-04-20T19:24:32.876Z,18.60
2018-04-20T19:27:01.103Z,18.50
2018-04-20T19:29:28.633Z,18.40
2018-04-20T19:31:56.182Z,18.40
2018-04-20T19:34:23.736Z,18.40
2018-04-20T19:36:51.226Z,18.30
2018-04-20T19:39:18.662Z,18.30
2018-04-20T19:41:46.176Z,18.20
2018-04-20T19:44:13.614Z,18.10
2018-04-20T19:46:41.057Z,18.10
2018-04-20T19:49:08.593Z,18.00
2018-04-20T19:51:36.027Z,17.90
2018-04-20T19:54:03.465Z,17.80
2018-04-20T19:56:31.695Z,17.70
2018-04-20T19:58:59.273Z,17.60
2018-04-20T20:01:26.725Z,17.60
2018-04-20T20:03:54.181Z,17.60
2018-04-20T20:06:21.625Z,17.50
2018-04-20T20:08:49.164Z,17.50
2018-04-20T20:11:16.581Z,17.40
2018-04-20T20:13:44.898Z,17.30
2018-04-20T20:16:12.372Z,17.30
2018-04-20T20:18:39.866Z,17.30
2018-04-20T20:21:07.473Z,17.20
2018-04-20T20:23:34.961Z,17.20
2018-04-20T20:26:02.410Z,17.10
2018-04-20T20:28:29.955Z,17.10
2018-04-20T20:30:57.433Z,17.00
2018-04-20T20:33:24.985Z,16.90
2018-04-20T20:35:52.437Z,16.80
2018-04-20T20:38:19.999Z,16.80
2018-04-20T20:40:47.445Z,16.70
2018-04-20T20:43:14.885Z,16.70
2018-04-20T20:45:42.324Z,16.60
2018-04-20T20:48:09.777Z,16.50
2018-04-20T20:50:37.247Z,16.40
2018-04-20T20:53:05.445Z,16.20
2018-04-20T20:55:32.885Z,16.10
2018-04-20T20:58:00.325Z,16.10
2018-04-20T21:00:27.927Z,16.00
2018-04-20T21:02:55.373Z,16.00
2018-04-20T21:05:22.814Z,15.90
2018-04-20T21:07:50.273Z,15.90
2018-04-20T21:10:17.760Z,15.90
2018-04-20T21:12:45.196Z,15.80
2018-04-20T21:15:12.657Z,15.70
2018-04-20T21:17:40.089Z,15.70
2018-04-20T21:20:07.520Z,15.70
2018-04-20T21:22:35.737Z,15.60
2018-04-20T21:25:03.285Z,15.50
2018-04-20T21:27:30.713Z,15.50
2018-04-20T21:29:58.929Z,15.50
2018-04-20T21:32:26.383Z,15.50
2018-04-20T21:34:53.815Z,15.50
2018-04-20T21:37:21.283Z,15.40
2018-04-20T21:39:49.488Z,15.20
2018-04-20T21:42:17.014Z,15.20
2018-04-20T21:44:44.441Z,15.20
2018-04-20T21:47:12.657Z,15.10
2018-04-20T21:49:40.129Z,15.10
2018-04-20T21:52:07.570Z,15.00
2018-04-20T21:54:35.070Z,15.00
2018-04-20T21:57:02.576Z,15.00
2018-04-20T21:59:30.061Z,14.90
2018-04-20T22:01:57.506Z,14.90
2018-04-20T22:04:24.952Z,14.90
2018-04-20T22:06:52.387Z,14.80
2018-04-20T22:09:19.830Z,14.80
2018-04-20T22:11:47.337Z,14.70
2018-04-20T22:14:14.797Z,14.70
2018-04-20T22:16:42.217Z,14.60
2018-04-20T22:19:09.668Z,14.60
2018-04-20T22:21:37.649Z,14.70
2018-04-20T22:24:05.129Z,14.80
2018-04-20T22:26:32.569Z,14.80
2018-04-20T22:29:00.122Z,14.80
2018-04-20T22:31:27.564Z,14.70
2018-04-20T22:33:55.008Z,14.60
2018-04-20T22:36:23.889Z,14.40
2018-04-20T22:38:52.088Z,14.40
2018-04-20T22:41:19.525Z,14.30
2018-04-20T22:43:47.746Z,14.30
2018-04-20T22:46:15.284Z,14.20
2018-04-20T22:48:42.717Z,14.20
2018-04-20T22:51:10.948Z,14.20
2018-04-20T22:53:38.387Z,14.10
2018-04-20T22:56:05.837Z,14.20
2018-04-20T22:58:33.276Z,14.20
2018-04-20T23:01:00.717Z,14.10
2018-04-20T23:03:28.169Z,14.00
2018-04-20T23:05:56.371Z,13.90
2018-04-20T23:08:23.932Z,13.80
2018-04-20T23:10:51.397Z,13.90
2018-04-20T23:13:18.868Z,13.80
2018-04-20T23:15:46.317Z,13.80
2018-04-20T23:18:13.857Z,13.80
2018-04-20T23:20:41.281Z,13.70
2018-04-20T23:23:09.497Z,13.70
2018-04-20T23:25:37.045Z,13.60
2018-04-20T23:28:04.464Z,13.70
2018-04-20T23:30:32.694Z,13.60
2018-04-20T23:33:00.130Z,13.50
2018-04-20T23:35:27.572Z,13.60
2018-04-20T23:37:55.000Z,13.60
2018-04-20T23:40:23.211Z,13.50
2018-04-20T23:42:50.645Z,13.50
2018-04-20T23:45:18.877Z,13.50
2018-04-20T23:47:46.327Z,13.40
2018-04-20T23:50:13.757Z,13.50
2018-04-20T23:52:41.240Z,13.40
2018-04-20T23:55:08.778Z,13.50
2018-04-20T23:57:36.238Z,13.40
